Time;durP1;ratioP1;P1;durP2;ratioP2;P2;SDS_P1;SDS_P2;PMS_P1;PMS_P2;Temp;Humidity;BMP_temperature;BMP_pressure;BME280_temperature;BME280_humidity;BME280_pressure;Samples;Min_cycle;Max_cycle;Signal;HPM_P1;HPM_P2
2021/12/24 00:00:41;;;;;;;9.57;6.03;;;;;;;7.20;69.63;99800.94;4917101;28;96714;-53
2021/12/24 00:03:07;;;;;;;5.50;4.80;;;;;;;7.22;69.61;99814.13;4914854;28;96778;-56
2021/12/24 00:05:33;;;;;;;6.87;5.10;;;;;;;7.22;69.54;99805.91;4917717;28;97209;-52
2021/12/24 00:08:00;;;;;;;6.70;5.20;;;;;;;7.21;69.77;99802.41;4916503;28;97329;-53
2021/12/24 00:10:26;;;;;;;7.27;4.97;;;;;;;7.26;69.43;99792.75;4916306;28;97343;-55
2021/12/24 00:13:02;;;;;;;9.10;4.80;;;;;;;7.29;69.39;99797.25;4917102;28;97094;-53
2021/12/24 00:15:51;;;;;;;6.23;4.43;;;;;;;7.32;69.45;99796.25;4914836;28;96961;-53
2021/12/24 00:18:38;;;;;;;6.77;3.93;;;;;;;7.31;69.74;99800.25;4913917;28;101900;-54
2021/12/24 00:35:07;;;;;;;4.67;4.27;;;;;;;7.35;69.71;99790.56;4915902;28;96919;-54
2021/12/24 00:35:16;;;;;;;5.10;4.03;;;;;;;7.36;69.81;99777.66;4915903;28;97116;-54
2021/12/24 00:37:46;;;;;;;4.43;4.00;;;;;;;7.42;69.91;99784.63;4914622;28;97277;-56
2021/12/24 00:40:19;;;;;;;4.43;3.63;;;;;;;7.46;69.96;99781.66;4914913;28;98635;-53
2021/12/24 00:42:53;;;;;;;3.43;3.13;;;;;;;7.49;69.78;99773.19;4917361;28;96716;-54
2021/12/24 00:45:21;;;;;;;5.83;3.90;;;;;;;7.51;69.63;99772.72;4913454;28;96810;-54
2021/12/24 00:47:48;;;;;;;4.30;3.03;;;;;;;7.53;69.77;99770.25;4918200;28;97604;-54
2021/12/24 00:50:19;;;;;;;4.37;3.70;;;;;;;7.56;69.59;99766.50;4917090;28;97318;-54
2021/12/24 00:55:15;;;;;;;3.83;3.53;;;;;;;7.57;69.54;99768.78;4916950;28;97337;-54
2021/12/24 00:57:43;;;;;;;4.10;3.50;;;;;;;7.61;69.53;99770.50;4917482;28;97895;-53
2021/12/24 01:00:26;;;;;;;3.73;3.43;;;;;;;7.63;69.97;99763.28;4917938;28;97959;-54
2021/12/24 01:02:53;;;;;;;4.20;3.10;;;;;;;7.64;69.67;99755.84;4911870;28;100286;-54
2021/12/24 01:05:21;;;;;;;3.27;3.07;;;;;;;7.63;69.73;99740.66;4916234;28;97185;-53
2021/12/24 01:07:49;;;;;;;4.07;3.47;;;;;;;7.64;69.62;99753.84;4920116;28;97430;-52
2021/12/24 01:10:20;;;;;;;4.20;3.60;;;;;;;7.65;69.68;99752.59;4915256;28;98491;-53
2021/12/24 01:12:46;;;;;;;3.20;3.00;;;;;;;7.66;69.67;99750.63;4912796;28;100777;-51
2021/12/24 01:15:14;;;;;;;3.40;3.10;;;;;;;7.68;69.92;99757.09;4916853;28;99524;-52
2021/12/24 01:17:58;;;;;;;3.40;3.10;;;;;;;7.71;69.59;99758.09;4913840;28;96789;-54
2021/12/24 01:21:08;;;;;;;3.00;2.70;;;;;;;7.73;69.67;99748.16;4914641;28;102483;-51
2021/12/24 01:23:44;;;;;;;3.37;3.07;;;;;;;7.75;69.76;99744.91;4916681;28;100846;-52
2021/12/24 01:26:14;;;;;;;4.27;3.37;;;;;;;7.76;69.88;99757.34;4929649;28;98569;-53
2021/12/24 01:29:05;;;;;;;3.73;2.90;;;;;;;7.77;69.81;99739.69;4915115;28;96821;-51
2021/12/24 01:44:50;;;;;;;3.03;2.80;;;;;;;7.83;69.54;99738.47;4910874;28;97984;-51
2021/12/24 01:47:16;;;;;;;2.97;2.70;;;;;;;7.87;69.85;99741.72;4913733;28;97180;-52
2021/12/24 01:49:41;;;;;;;4.37;3.13;;;;;;;7.87;69.54;99738.22;4914078;28;96869;-51
2021/12/24 01:52:07;;;;;;;3.10;2.90;;;;;;;7.88;69.62;99736.97;4912260;28;105704;-55
2021/12/24 01:54:33;;;;;;;3.50;3.13;;;;;;;7.90;69.82;99726.28;4916030;28;97120;-51
2021/12/24 01:56:59;;;;;;;3.50;3.20;;;;;;;7.91;69.62;99736.72;4915948;28;98741;-52
2021/12/24 01:59:24;;;;;;;3.40;3.10;;;;;;;7.93;69.65;99725.28;4913442;28;98078;-52
2021/12/24 02:01:50;;;;;;;2.90;2.70;;;;;;;7.95;70.06;99728.28;4912561;28;96781;-54
2021/12/24 02:04:17;;;;;;;3.23;2.93;;;;;;;7.97;69.89;99728.53;4915357;28;99123;-52
2021/12/24 02:06:44;;;;;;;3.80;3.10;;;;;;;8.00;69.75;99727.53;4912882;28;96806;-52
2021/12/24 02:09:10;;;;;;;3.10;2.80;;;;;;;8.00;69.58;99728.28;4911523;28;97059;-54
2021/12/24 02:11:38;;;;;;;3.30;2.93;;;;;;;8.03;69.70;99726.53;4913420;28;97392;-54
2021/12/24 02:14:09;;;;;;;2.70;2.50;;;;;;;8.05;69.67;99729.53;4914499;28;97204;-54
2021/12/24 02:16:47;;;;;;;2.97;2.77;;;;;;;8.07;69.97;99724.28;4912827;28;96797;-53
2021/12/24 02:30:08;;;;;;;3.37;3.07;;;;;;;8.11;69.74;99713.84;4913270;28;97045;-55
2021/12/24 02:32:34;;;;;;;2.90;2.70;;;;;;;8.12;69.75;99712.59;4912991;28;97488;-54
2021/12/24 02:35:00;;;;;;;2.57;2.37;;;;;;;8.14;69.74;99715.59;4914642;28;97040;-54
2021/12/24 02:37:25;;;;;;;3.33;2.60;;;;;;;8.16;69.79;99722.06;4918745;28;96940;-51
2021/12/24 02:39:51;;;;;;;3.03;2.83;;;;;;;8.18;69.49;99716.09;4917781;28;97135;-54
2021/12/24 02:42:19;;;;;;;3.10;2.80;;;;;;;8.19;69.72;99718.31;4912168;28;126694;-53
2021/12/24 02:44:47;;;;;;;3.90;2.50;;;;;;;8.24;69.68;99716.81;4913884;28;96789;-54
2021/12/24 02:55:12;;;;;;;2.73;2.53;;;;;;;8.32;70.01;99693.22;4918836;28;101438;-54
2021/12/24 02:57:40;;;;;;;2.50;2.30;;;;;;;8.36;69.98;99684.72;4917712;28;98321;-52
2021/12/24 03:00:14;;;;;;;2.43;2.33;;;;;;;8.38;70.04;99677.50;4919407;28;97824;-53
2021/12/24 03:02:40;;;;;;;2.47;2.17;;;;;;;8.39;69.68;99678.97;4914718;28;101979;-53
2021/12/24 03:05:07;;;;;;;2.90;2.70;;;;;;;8.42;70.07;99678.00;4914124;28;97286;-52
2021/12/24 03:07:32;;;;;;;2.60;2.40;;;;;;;8.45;70.05;99673.50;4912103;28;96933;-53
2021/12/24 03:09:59;;;;;;;3.20;3.00;;;;;;;8.47;69.93;99671.00;4914004;28;98782;-53
2021/12/24 03:12:26;;;;;;;2.63;2.40;;;;;;;8.47;69.95;99660.78;4913364;28;97232;-53
2021/12/24 03:14:51;;;;;;;2.87;2.67;;;;;;;8.49;70.01;99663.78;4919172;28;98605;-52
2021/12/24 03:17:20;;;;;;;2.40;2.30;;;;;;;8.50;69.98;99661.75;4918813;28;96795;-53
2021/12/24 03:19:46;;;;;;;3.53;2.80;;;;;;;8.53;70.12;99658.78;4917365;28;96967;-53
2021/12/24 03:22:27;;;;;;;2.00;1.90;;;;;;;8.55;70.09;99672.72;4912735;28;98482;-53
2021/12/24 03:24:52;;;;;;;2.97;2.77;;;;;;;8.58;69.72;99666.25;4917728;28;97909;-52
2021/12/24 03:27:18;;;;;;;3.10;2.83;;;;;;;8.56;69.85;99657.75;4913756;28;122162;-53
2021/12/24 03:29:43;;;;;;;3.10;2.80;;;;;;;8.62;69.99;99644.06;4914819;28;96924;-53
2021/12/24 03:32:09;;;;;;;2.90;2.70;;;;;;;8.65;70.01;99654.03;4918915;28;96956;-54
2021/12/24 03:34:35;;;;;;;2.80;2.60;;;;;;;8.67;69.97;99657.72;4920430;28;96998;-53
2021/12/24 03:37:02;;;;;;;3.60;3.30;;;;;;;8.69;69.94;99652.50;4917875;28;97296;-52
2021/12/24 03:39:27;;;;;;;4.60;3.37;;;;;;;8.71;69.98;99647.28;4920253;28;97000;-53
2021/12/24 03:41:53;;;;;;;3.30;3.10;;;;;;;8.71;69.91;99644.53;4914345;28;97614;-53
2021/12/24 03:44:19;;;;;;;4.00;3.30;;;;;;;8.71;69.87;99639.06;4918430;28;97420;-52
2021/12/24 03:47:00;;;;;;;3.70;2.93;;;;;;;8.72;70.05;99639.78;4915148;28;99246;-52
2021/12/24 03:49:36;;;;;;;3.67;3.30;;;;;;;8.73;70.00;99631.06;4917981;28;97020;-53
2021/12/24 03:52:31;;;;;;;4.10;3.40;;;;;;;8.76;70.23;99626.53;4917964;28;98758;-53
2021/12/24 03:55:00;;;;;;;4.10;3.70;;;;;;;8.77;70.07;99628.06;4920837;28;100200;-53
2021/12/24 03:57:28;;;;;;;4.93;3.73;;;;;;;8.83;69.99;99621.28;4914661;28;97135;-53
2021/12/24 03:59:55;;;;;;;3.53;3.23;;;;;;;8.84;70.04;99624.78;4915344;28;97779;-52
2021/12/24 04:02:21;;;;;;;6.20;3.77;;;;;;;8.86;70.17;99625.78;4919247;28;97832;-53
2021/12/24 04:04:46;;;;;;;3.87;3.47;;;;;;;8.89;70.18;99624.75;4914801;28;98789;-53
2021/12/24 04:07:12;;;;;;;3.60;3.30;;;;;;;8.91;70.12;99627.00;4919846;28;97556;-53
2021/12/24 04:09:43;;;;;;;4.90;3.90;;;;;;;8.92;70.14;99607.31;4913927;28;97428;-53
2021/12/24 04:12:08;;;;;;;3.83;3.33;;;;;;;8.98;70.07;99610.75;4917831;28;103335;-52
2021/12/24 04:14:33;;;;;;;4.20;3.80;;;;;;;9.01;70.08;99600.78;4920325;28;97099;-53
2021/12/24 04:16:59;;;;;;;5.70;4.27;;;;;;;9.02;70.22;99605.03;4914875;28;119315;-53
2021/12/24 04:24:55;;;;;;;4.30;3.80;;;;;;;9.07;70.00;99606.97;4925880;28;100244;-53
2021/12/24 04:27:23;;;;;;;4.87;3.87;;;;;;;9.10;69.89;99602.47;4934420;28;98014;-53
2021/12/24 04:29:49;;;;;;;5.50;4.13;;;;;;;9.13;70.14;99612.44;4915834;28;97439;-54
2021/12/24 04:32:25;;;;;;;5.80;4.33;;;;;;;9.15;70.05;99612.69;4913710;28;97527;-53
2021/12/24 04:34:52;;;;;;;7.27;4.40;;;;;;;9.18;70.19;99611.66;4913047;28;97188;-53
2021/12/24 05:01:48;;;;;;;3.97;3.50;;;;;;;9.34;70.09;99605.31;4918008;28;98255;-52
2021/12/24 05:04:14;;;;;;;6.20;4.10;;;;;;;9.35;70.10;99604.09;4912973;28;97133;-53
2021/12/24 05:06:50;;;;;;;6.93;4.07;;;;;;;9.38;70.13;99614.03;4915586;28;97502;-53
2021/12/24 05:09:20;;;;;;;4.70;3.60;;;;;;;9.38;70.17;99603.78;4917607;28;97394;-53
2021/12/24 05:11:45;;;;;;;4.43;4.03;;;;;;;9.41;70.05;99610.28;4912939;28;97093;-53
2021/12/24 05:14:15;;;;;;;5.10;3.93;;;;;;;9.43;69.99;99610.50;4914103;28;125586;-53
2021/12/24 05:16:52;;;;;;;4.10;3.30;;;;;;;9.44;70.02;99609.25;4910804;28;96954;-52
2021/12/24 05:22:08;;;;;;;5.70;3.57;;;;;;;9.46;70.03;99603.97;4938960;28;96957;-51
2021/12/24 05:24:33;;;;;;;4.73;3.67;;;;;;;9.48;70.12;99612.47;4938473;28;97403;-52
2021/12/24 05:27:03;;;;;;;4.13;3.27;;;;;;;9.50;70.04;99613.44;4951311;28;123986;-52
2021/12/24 05:29:28;;;;;;;5.07;3.60;;;;;;;9.50;69.94;99605.19;4956794;28;97110;-52
2021/12/24 05:31:55;;;;;;;5.60;4.20;;;;;;;9.53;70.02;99600.69;4961428;28;97263;-52
2021/12/24 05:34:21;;;;;;;4.47;4.07;;;;;;;9.54;70.04;99608.44;4960223;28;98503;-52
2021/12/24 05:36:48;;;;;;;4.10;3.70;;;;;;;9.55;70.00;99600.94;4961748;28;97156;-52
2021/12/24 05:39:15;;;;;;;4.03;3.17;;;;;;;9.56;69.91;99599.69;4958678;28;98998;-51
2021/12/24 05:41:41;;;;;;;5.20;3.80;;;;;;;9.57;70.00;99596.41;4956503;28;97369;-52
2021/12/24 05:44:09;;;;;;;3.83;3.53;;;;;;;9.58;70.03;99597.16;4957298;28;98985;-52
2021/12/24 05:46:34;;;;;;;3.30;3.00;;;;;;;9.59;70.18;99593.16;4956551;28;97489;-51
2021/12/24 05:49:00;;;;;;;5.63;3.10;;;;;;;9.60;70.09;99595.41;4957546;28;96980;-52
2021/12/24 05:51:25;;;;;;;8.20;4.17;;;;;;;9.63;70.06;99586.13;4958089;28;110096;-51
2021/12/24 05:53:50;;;;;;;4.03;3.67;;;;;;;9.64;70.00;99576.66;4957233;28;97568;-52
2021/12/24 05:56:16;;;;;;;5.20;3.87;;;;;;;9.65;70.10;99588.38;4960810;28;96926;-52
2021/12/24 05:58:42;;;;;;;3.40;3.20;;;;;;;9.67;70.24;99583.13;4957944;28;97037;-52
2021/12/24 06:01:07;;;;;;;3.70;3.40;;;;;;;9.68;70.11;99579.09;4954680;28;97166;-51
2021/12/24 06:03:33;;;;;;;4.07;3.67;;;;;;;9.71;70.03;99580.84;4958448;28;97091;-51
2021/12/24 06:05:59;;;;;;;3.60;3.17;;;;;;;9.72;70.24;99576.81;4956488;28;98401;-52
2021/12/24 06:08:24;;;;;;;3.53;3.10;;;;;;;9.74;70.18;99568.84;4952062;28;102019;-51
2021/12/24 06:10:49;;;;;;;3.80;3.37;;;;;;;9.76;70.15;99569.78;4957077;28;111529;-52
2021/12/24 06:13:14;;;;;;;3.70;2.97;;;;;;;9.77;70.29;99567.81;4956934;28;97396;-52
2021/12/24 06:15:45;;;;;;;3.77;3.37;;;;;;;9.78;70.15;99569.31;4987645;28;99383;-52
2021/12/24 06:18:20;;;;;;;3.30;2.93;;;;;;;9.81;70.27;99562.78;4986630;28;96853;-52
2021/12/24 06:20:46;;;;;;;3.87;3.47;;;;;;;9.82;70.42;99567.78;4957637;28;98488;-52
2021/12/24 06:23:12;;;;;;;3.23;3.03;;;;;;;9.86;70.24;99570.22;4958772;28;99204;-53
2021/12/24 06:25:37;;;;;;;5.57;3.70;;;;;;;9.88;70.32;99573.19;4957158;28;97293;-53
2021/12/24 06:28:03;;;;;;;8.63;3.60;;;;;;;9.89;70.33;99574.69;4958380;28;97391;-53
2021/12/24 06:30:29;;;;;;;3.20;3.00;;;;;;;9.90;70.28;99575.44;4943775;28;96897;-53
2021/12/24 06:32:59;;;;;;;3.20;2.90;;;;;;;9.91;70.31;99577.69;4942038;28;97923;-53
2021/12/24 06:35:26;;;;;;;3.27;3.00;;;;;;;9.93;70.36;99577.91;4943697;28;97086;-53
2021/12/24 06:37:53;;;;;;;4.60;3.80;;;;;;;9.96;70.44;99579.59;4944994;28;98313;-53
2021/12/24 06:40:18;;;;;;;4.43;3.80;;;;;;;9.98;70.32;99576.38;4946394;28;96817;-53
2021/12/24 06:42:44;;;;;;;3.77;3.47;;;;;;;10.00;70.42;99577.34;4941816;28;97947;-53
2021/12/24 06:45:10;;;;;;;3.30;3.00;;;;;;;10.02;70.38;99580.31;4941634;28;97389;-53
2021/12/24 06:47:36;;;;;;;3.30;3.10;;;;;;;10.05;70.49;99581.28;4944233;28;97179;-53
2021/12/24 06:50:01;;;;;;;3.80;3.50;;;;;;;10.07;70.55;99584.28;4947869;28;97015;-53
2021/12/24 06:52:26;;;;;;;4.33;3.53;;;;;;;10.11;70.50;99584.75;4941142;28;96851;-53
2021/12/24 06:54:52;;;;;;;6.83;3.13;;;;;;;10.14;70.47;99591.97;4948937;28;97312;-53
2021/12/24 06:57:19;;;;;;;4.80;3.33;;;;;;;10.15;70.38;99601.72;4942654;28;97110;-53
2021/12/24 06:59:45;;;;;;;3.40;3.13;;;;;;;10.18;70.42;99595.91;4943588;28;96946;-55
2021/12/24 07:02:10;;;;;;;4.13;3.50;;;;;;;10.19;70.58;99597.41;4943508;28;100822;-52
2021/12/24 07:04:36;;;;;;;3.73;3.43;;;;;;;10.20;70.39;99590.66;4942064;28;97167;-53
2021/12/24 07:07:01;;;;;;;3.47;3.23;;;;;;;10.23;70.60;99583.38;4942265;28;98083;-53
2021/12/24 07:09:27;;;;;;;3.43;3.13;;;;;;;10.23;70.62;99581.38;4944190;28;97049;-53
2021/12/24 07:11:52;;;;;;;3.80;3.50;;;;;;;10.27;70.59;99584.59;4941963;28;98783;-55
2021/12/24 07:14:17;;;;;;;6.30;3.97;;;;;;;10.28;70.96;99583.34;4943205;28;125433;-54
2021/12/24 07:16:43;;;;;;;4.23;3.80;;;;;;;10.32;70.48;99589.28;4946136;28;97057;-53
2021/12/24 07:19:08;;;;;;;5.83;4.27;;;;;;;10.34;70.40;99586.75;4944215;28;104249;-54
2021/12/24 07:21:35;;;;;;;4.37;4.00;;;;;;;10.36;70.40;99583.50;4943372;28;121882;-55
2021/12/24 07:24:02;;;;;;;4.17;3.80;;;;;;;10.36;70.57;99583.50;4944800;28;96891;-54
2021/12/24 07:26:27;;;;;;;4.37;3.97;;;;;;;10.37;70.58;99583.00;4943325;28;97160;-54
2021/12/24 07:28:52;;;;;;;3.70;3.40;;;;;;;10.40;70.62;99584.69;4941679;28;97289;-54
2021/12/24 07:31:18;;;;;;;8.60;5.50;;;;;;;10.42;70.65;99581.41;4941978;28;97340;-52
2021/12/24 07:33:43;;;;;;;6.37;5.60;;;;;;;10.45;70.71;99578.41;4943372;28;103765;-53
2021/12/24 07:36:08;;;;;;;6.70;5.60;;;;;;;10.49;70.70;99584.34;4942499;28;110387;-54
2021/12/24 07:38:34;;;;;;;5.13;4.47;;;;;;;10.53;70.66;99578.53;4945260;28;108800;-53
2021/12/24 07:41:00;;;;;;;8.60;5.60;;;;;;;10.54;70.57;99586.28;4940299;28;96731;-53
2021/12/24 07:43:26;;;;;;;5.07;4.57;;;;;;;10.56;70.59;99577.53;4940706;28;96884;-54
2021/12/24 07:45:53;;;;;;;5.87;4.53;;;;;;;10.57;70.66;99577.00;4943555;28;97168;-55
2021/12/24 07:48:27;;;;;;;7.07;4.77;;;;;;;10.62;70.62;99577.44;4976952;28;97267;-55
2021/12/24 07:53:18;;;;;;;5.43;4.30;;;;;;;10.64;70.70;99575.66;4944486;28;97152;-52
2021/12/24 07:55:43;;;;;;;4.73;4.23;;;;;;;10.65;70.82;99570.91;4943693;28;97090;-54
2021/12/24 07:58:09;;;;;;;4.80;4.30;;;;;;;10.67;70.73;99565.63;4943735;28;96807;-53
2021/12/24 08:00:36;;;;;;;4.93;4.50;;;;;;;10.69;70.86;99565.84;4945119;28;96812;-54
2021/12/24 08:03:02;;;;;;;4.50;4.10;;;;;;;10.72;70.91;99573.09;4943442;28;97667;-53
2021/12/24 08:05:29;;;;;;;4.63;3.93;;;;;;;10.73;70.86;99563.56;4943799;28;97255;-53
2021/12/24 08:07:55;;;;;;;4.83;4.07;;;;;;;10.75;71.10;99570.03;4941297;28;96973;-54
2021/12/24 08:10:23;;;;;;;7.23;4.77;;;;;;;10.79;71.08;99572.50;4939941;28;98965;-53
2021/12/24 08:12:49;;;;;;;8.67;4.83;;;;;;;10.80;70.97;99571.97;4947635;28;97369;-53
2021/12/24 08:15:17;;;;;;;5.17;4.00;;;;;;;10.81;71.03;99561.72;4940139;28;97519;-53
2021/12/24 08:17:43;;;;;;;5.97;4.07;;;;;;;10.83;71.10;99562.69;4941029;28;96898;-52
2021/12/24 08:20:09;;;;;;;6.67;4.37;;;;;;;10.89;71.11;99562.59;4948067;28;98468;-53
2021/12/24 08:22:35;;;;;;;4.53;4.13;;;;;;;10.91;71.10;99566.31;4941866;28;98696;-53
2021/12/24 08:25:00;;;;;;;4.87;4.27;;;;;;;10.94;71.09;99572.81;4944562;28;98204;-51
2021/12/24 08:27:26;;;;;;;5.33;4.47;;;;;;;10.96;71.12;99573.03;4949164;28;96811;-50
2021/12/24 08:29:52;;;;;;;4.80;4.03;;;;;;;10.97;71.16;99569.75;4943376;28;100825;-50
2021/12/24 08:32:17;;;;;;;6.20;5.00;;;;;;;11.01;71.10;99574.94;4945519;28;97270;-50
2021/12/24 08:34:43;;;;;;;3.97;3.23;;;;;;;10.98;71.13;99576.00;4936986;28;97030;-51
2021/12/24 08:37:09;;;;;;;4.90;4.10;;;;;;;10.99;70.93;99580.97;4941332;28;96863;-51
2021/12/24 08:39:34;;;;;;;7.83;5.13;;;;;;;11.00;70.96;99589.97;4943194;28;96898;-50
2021/12/24 08:42:00;;;;;;;7.23;3.57;;;;;;;10.96;71.11;99576.53;4940698;28;96863;-50
2021/12/24 08:44:29;;;;;;;3.57;3.27;;;;;;;10.93;71.09;99585.81;4942106;28;96847;-51
2021/12/24 08:46:55;;;;;;;3.93;3.33;;;;;;;10.94;71.28;99594.81;4944792;28;96985;-51
2021/12/24 08:49:23;;;;;;;5.20;2.90;;;;;;;10.89;71.08;99590.13;4940870;28;97840;-51
2021/12/24 08:51:49;;;;;;;5.07;2.57;;;;;;;10.89;71.01;99581.88;4942421;28;97305;-55
2021/12/24 08:54:15;;;;;;;7.00;2.27;;;;;;;10.86;71.00;99585.66;4940732;28;97203;-50
2021/12/24 08:56:40;;;;;;;6.50;2.60;;;;;;;10.85;70.96;99589.69;4938594;28;96793;-51
2021/12/24 08:59:05;;;;;;;3.10;2.50;;;;;;;10.85;71.06;99575.91;4941543;28;118270;-49
2021/12/24 09:01:32;;;;;;;4.47;2.67;;;;;;;10.84;70.85;99586.16;4938963;28;123009;-49
2021/12/24 09:03:57;;;;;;;21.43;2.77;;;;;;;10.80;70.54;99593.97;4941530;28;97203;-49
2021/12/24 09:06:26;;;;;;;6.10;1.93;;;;;;;10.78;70.69;99579.25;4940920;28;97107;-54
2021/12/24 09:08:51;;;;;;;2.23;2.03;;;;;;;10.78;70.82;99595.75;4941641;28;96938;-53
2021/12/24 09:11:16;;;;;;;2.57;2.37;;;;;;;10.74;70.86;99601.56;4942544;28;126548;-52
2021/12/24 09:13:43;;;;;;;5.27;3.37;;;;;;;10.70;71.03;99597.63;4942972;28;96832;-53
2021/12/24 09:16:09;;;;;;;3.23;2.33;;;;;;;10.70;71.26;99614.88;4942965;28;98658;-54
2021/12/24 09:18:36;;;;;;;1.17;1.10;;;;;;;10.73;70.93;99607.56;4939384;28;103058;-52
2021/12/24 09:21:03;;;;;;;0.80;0.80;;;;;;;10.59;70.93;99601.25;4943870;28;97441;-53
2021/12/24 09:23:29;;;;;;;1.43;1.20;;;;;;;10.57;71.26;99599.00;4943265;28;96870;-51
2021/12/24 09:25:54;;;;;;;2.30;0.90;;;;;;;10.52;71.10;99602.56;4938993;28;97116;-51
2021/12/24 09:28:19;;;;;;;0.50;0.40;;;;;;;10.45;71.03;99603.13;4941227;28;96719;-50
2021/12/24 09:30:45;;;;;;;0.70;0.70;;;;;;;10.46;71.21;99606.63;4925074;28;109971;-53
2021/12/24 09:33:11;;;;;;;2.50;0.40;;;;;;;10.43;70.92;99605.66;4925341;28;96977;-53
2021/12/24 09:35:36;;;;;;;0.53;0.50;;;;;;;10.46;71.07;99592.91;4921442;28;97412;-52
2021/12/24 09:38:02;;;;;;;0.50;0.50;;;;;;;10.38;71.15;99592.72;4921976;28;98314;-54
2021/12/24 09:40:28;;;;;;;0.50;0.30;;;;;;;10.34;71.03;99605.25;4921757;28;97525;-52
2021/12/24 09:42:54;;;;;;;0.40;0.40;;;;;;;10.37;71.04;99607.75;4926391;28;96979;-52
2021/12/24 09:45:20;;;;;;;0.50;0.40;;;;;;;10.40;70.99;99605.94;4934281;28;98075;-54
2021/12/24 09:47:45;;;;;;;0.60;0.40;;;;;;;10.44;70.90;99617.41;4939249;28;98678;-51
2021/12/24 09:50:16;;;;;;;0.50;0.50;;;;;;;10.43;70.62;99611.16;4940444;28;96967;-51
2021/12/24 09:52:44;;;;;;;0.50;0.40;;;;;;;10.40;70.62;99614.19;4941845;28;96728;-53
2021/12/24 09:55:16;;;;;;;0.80;0.50;;;;;;;10.32;70.57;99611.28;4942902;28;97222;-52
2021/12/24 09:57:42;;;;;;;0.47;0.40;;;;;;;10.28;70.81;99621.81;4938198;28;101218;-52
2021/12/24 10:00:11;;;;;;;0.40;0.40;;;;;;;10.30;70.76;99619.31;4940110;28;97509;-51
2021/12/24 10:02:43;;;;;;;0.43;0.37;;;;;;;10.27;70.60;99636.06;4941428;28;97334;-52
2021/12/24 10:05:30;;;;;;;0.40;0.40;;;;;;;10.26;70.59;99618.84;4942135;28;97034;-51
2021/12/24 10:08:17;;;;;;;0.70;0.50;;;;;;;10.15;70.71;99629.94;4942038;28;100691;-54
2021/12/24 10:10:44;;;;;;;0.50;0.50;;;;;;;10.01;70.66;99636.50;4941993;28;97401;-53
2021/12/24 10:13:43;;;;;;;0.67;0.50;;;;;;;9.95;71.06;99637.81;4946034;28;96740;-54
2021/12/24 10:16:20;;;;;;;0.50;0.50;;;;;;;9.83;70.89;99643.41;4944032;28;98131;-52
2021/12/24 10:18:50;;;;;;;0.40;0.40;;;;;;;9.74;70.93;99646.47;4943397;28;97092;-52
2021/12/24 10:21:19;;;;;;;0.87;0.60;;;;;;;9.67;70.81;99658.03;4944471;28;97366;-53
2021/12/24 10:23:50;;;;;;;0.50;0.50;;;;;;;9.54;70.75;99659.84;4938918;28;96772;-52
2021/12/24 10:26:21;;;;;;;0.63;0.63;;;;;;;9.44;70.87;99661.38;4941129;28;96926;-51
2021/12/24 10:29:07;;;;;;;0.40;0.40;;;;;;;9.34;70.89;99657.47;4941155;28;98214;-52
2021/12/24 10:31:46;;;;;;;0.50;0.40;;;;;;;9.25;71.21;99655.03;4942163;28;98486;-51
2021/12/24 10:34:27;;;;;;;0.50;0.50;;;;;;;9.24;71.14;99653.53;4943528;28;96810;-52
2021/12/24 10:37:22;;;;;;;0.70;0.67;;;;;;;9.12;71.00;99652.84;4943213;28;97253;-53
2021/12/24 10:39:58;;;;;;;0.57;0.57;;;;;;;9.07;71.14;99659.84;4939900;28;100480;-53
2021/12/24 10:42:37;;;;;;;0.60;0.50;;;;;;;9.03;70.89;99669.59;4944777;28;101786;-51
2021/12/24 10:45:23;;;;;;;0.50;0.50;;;;;;;9.05;71.07;99678.81;4943470;28;96847;-53
2021/12/24 10:47:49;;;;;;;0.50;0.40;;;;;;;9.02;70.96;99676.34;4944295;28;97000;-53
2021/12/24 10:55:24;;;;;;;0.50;0.50;;;;;;;8.84;70.64;99671.41;4943298;28;97523;-52
2021/12/24 10:57:56;;;;;;;0.57;0.57;;;;;;;8.80;70.92;99677.13;4943970;28;96899;-55
2021/12/24 11:00:48;;;;;;;0.40;0.30;;;;;;;8.81;70.79;99697.09;4944809;28;97543;-54
2021/12/24 11:03:19;;;;;;;0.90;0.63;;;;;;;8.72;70.72;99700.84;4924707;28;101675;-53
2021/12/24 11:05:46;;;;;;;0.50;0.40;;;;;;;8.76;70.78;99698.59;4923880;28;98386;-54
2021/12/24 11:08:15;;;;;;;0.43;0.40;;;;;;;8.72;70.61;99698.09;4924125;28;96913;-51
2021/12/24 11:10:49;;;;;;;0.60;0.40;;;;;;;8.65;70.57;99723.28;4920994;28;97520;-51
2021/12/24 11:13:17;;;;;;;0.50;0.43;;;;;;;8.56;70.45;99720.09;4923861;28;102182;-54
2021/12/24 11:15:43;;;;;;;0.40;0.30;;;;;;;8.56;70.79;99718.06;4924059;28;97052;-53
2021/12/24 11:18:23;;;;;;;2.20;0.33;;;;;;;8.46;69.93;99733.28;4925116;28;97032;-53
2021/12/24 11:20:56;;;;;;;0.40;0.30;;;;;;;8.38;70.37;99742.50;4922606;28;97533;-51
2021/12/24 11:23:24;;;;;;;0.40;0.30;;;;;;;8.25;70.21;99748.47;4923676;28;98904;-53
2021/12/24 11:25:53;;;;;;;0.40;0.30;;;;;;;8.24;70.71;99741.47;4920205;28;97276;-54
2021/12/24 11:28:19;;;;;;;0.50;0.30;;;;;;;8.19;70.50;99751.19;4941763;28;97721;-52
2021/12/24 11:30:49;;;;;;;0.43;0.37;;;;;;;8.17;70.61;99747.47;4940471;28;96969;-52
2021/12/24 11:33:17;;;;;;;0.40;0.40;;;;;;;8.18;70.34;99766.16;4940436;28;98332;-53
2021/12/24 11:35:44;;;;;;;0.50;0.30;;;;;;;8.03;69.95;99765.63;4942692;28;97307;-52
2021/12/24 11:38:17;;;;;;;0.77;0.50;;;;;;;8.00;70.38;99766.63;4941979;28;96925;-54
2021/12/24 11:40:46;;;;;;;0.80;0.40;;;;;;;8.03;70.42;99779.34;4940156;28;101936;-49
2021/12/24 11:43:12;;;;;;;0.60;0.60;;;;;;;7.98;69.89;99771.09;4946948;28;100471;-51
2021/12/24 11:45:38;;;;;;;0.70;0.70;;;;;;;7.92;70.17;99775.81;4942718;28;97003;-52
2021/12/24 11:48:04;;;;;;;0.50;0.47;;;;;;;7.86;70.19;99778.56;4945963;28;96950;-52
2021/12/24 11:50:30;;;;;;;0.60;0.60;;;;;;;7.83;70.13;99792.47;4941683;28;96847;-55
2021/12/24 11:52:59;;;;;;;0.50;0.50;;;;;;;7.75;70.32;99786.75;4940504;28;98569;-53
2021/12/24 11:55:31;;;;;;;0.70;0.70;;;;;;;7.75;70.28;99794.19;4944856;28;97481;-53
2021/12/24 11:58:03;;;;;;;0.63;0.63;;;;;;;7.74;70.10;99792.69;4942016;28;96957;-53
2021/12/24 12:00:33;;;;;;;0.80;0.60;;;;;;;7.75;70.15;99792.22;4944226;28;101891;-52
2021/12/24 12:02:59;;;;;;;0.90;0.90;;;;;;;7.73;70.12;99796.69;4938023;28;100342;-53
2021/12/24 12:05:37;;;;;;;1.30;0.60;;;;;;;7.69;69.61;99794.16;4941774;28;97189;-51
2021/12/24 12:08:27;;;;;;;1.67;1.00;;;;;;;7.52;69.58;99793.38;4941972;28;97350;-52
2021/12/24 12:11:01;;;;;;;0.60;0.60;;;;;;;7.42;69.85;99808.50;4938916;28;101802;-54
2021/12/24 12:13:48;;;;;;;0.90;0.90;;;;;;;7.38;69.73;99816.94;4938891;28;98123;-52
2021/12/24 12:16:29;;;;;;;0.50;0.43;;;;;;;7.31;69.91;99827.59;4940071;28;98864;-51
2021/12/24 12:22:44;;;;;;;0.50;0.50;;;;;;;7.28;70.19;99829.31;4902180;28;100598;-52
2021/12/24 12:25:11;;;;;;;0.60;0.60;;;;;;;7.37;70.17;99829.13;4900503;28;101829;-52
2021/12/24 12:27:43;;;;;;;0.60;0.60;;;;;;;7.46;70.18;99826.19;4922195;28;97092;-52
2021/12/24 12:30:19;;;;;;;0.60;0.60;;;;;;;7.48;69.65;99826.44;4946328;28;97293;-53
2021/12/24 12:32:45;;;;;;;0.57;0.57;;;;;;;7.40;69.21;99822.66;4940664;28;96650;-51
2021/12/24 12:35:11;;;;;;;0.50;0.40;;;;;;;7.35;69.55;99834.34;4941925;28;98281;-52
2021/12/24 12:37:47;;;;;;;0.60;0.60;;;;;;;7.38;69.62;99838.81;4942045;28;96776;-51
2021/12/24 12:40:12;;;;;;;0.80;0.67;;;;;;;7.25;69.13;99835.03;4972804;28;97415;-51
2021/12/24 12:42:51;;;;;;;0.50;0.50;;;;;;;7.15;69.40;99837.19;4943394;28;109135;-52
2021/12/24 12:45:20;;;;;;;0.70;0.70;;;;;;;7.11;69.99;99844.13;4940432;28;100649;-52
2021/12/24 12:47:57;;;;;;;0.83;0.83;;;;;;;7.09;69.77;99839.16;4940857;28;97649;-51
2021/12/24 12:50:25;;;;;;;0.53;0.53;;;;;;;7.07;69.83;99838.91;4942061;28;97714;-51
2021/12/24 12:52:54;;;;;;;0.60;0.60;;;;;;;7.08;69.46;99839.63;4943181;28;97481;-53
2021/12/24 12:55:31;;;;;;;0.63;0.63;;;;;;;7.11;69.41;99844.88;4940686;28;97096;-51
2021/12/24 12:58:28;;;;;;;1.90;0.63;;;;;;;7.15;69.42;99848.16;4939988;28;98142;-51
2021/12/24 13:01:07;;;;;;;0.77;0.77;;;;;;;7.18;69.16;99847.19;4930681;28;96992;-53
2021/12/24 13:03:55;;;;;;;1.30;0.80;;;;;;;7.17;69.00;99851.13;4942236;28;100594;-53
2021/12/24 13:06:41;;;;;;;0.60;0.60;;;;;;;7.17;69.41;99850.38;4939953;28;97185;-54
2021/12/24 13:09:10;;;;;;;0.73;0.73;;;;;;;7.16;69.24;99849.66;4942399;28;96762;-52
2021/12/24 13:11:38;;;;;;;0.60;0.60;;;;;;;7.18;68.88;99857.38;4939745;28;96950;-53
2021/12/24 13:14:04;;;;;;;1.20;0.80;;;;;;;7.10;68.50;99856.31;4941775;28;98021;-54
2021/12/24 13:16:47;;;;;;;0.90;0.70;;;;;;;7.07;68.78;99868.22;4941148;28;96840;-55
2021/12/24 13:24:53;;;;;;;0.80;0.80;;;;;;;7.12;68.54;99883.94;4938766;28;101199;-51